Flugplatz Donauwörth-Genderkingen

Für EDMQ sind keine METAR/TAF Berichte vorhanden.
Es werden die Flugwettermeldungen vom Flugplatz Neuburg Airport in 26 km Entfernung angezeigt.

Bericht für ETSN

vom 07.03. um 01:20 UTC

Wind 2 kt aus 130°

Sichtweite 10 km oder mehr

gering bewölkt in 33000 ft

Temperatur -5.0°C

Taupunkt -8.0°C

Luftfeuchtigkeit 79%

Luftdruck 1026 hPa

ETSN 070120Z 13002KT 9999 FEW330 M05/M08 Q1026 BLU+
Keine Prognose (TAF) verfügbar.
Impressum